ADDS METAR Data INFO
IDs: Format: Raw Decoded Include TAF

Data at: 1713 UTC 23 Oct 2017

KSCR 231700Z AUTO 15013KT 10SM OVC021 23/18 A3003 RMK AO2 T02250180
KSCR 231640Z AUTO 13010G21KT 10SM OVC021 23/18 A3003 RMK AO2 T02260180
KSCR 231620Z AUTO 13010G17KT 080V160 10SM OVC019 22/18 A3004 RMK AO2 T02210180
KSCR 231600Z AUTO 13008G14KT 10SM OVC019 22/18 A3006 RMK AO2 T02200183
KSCR 231540Z AUTO 14010G16KT 10SM BKN015 OVC021 22/19 A3006 RMK AO2 T02190186
KSCR 231520Z AUTO 13012G15KT 090V150 10SM OVC013 21/19 A3007 RMK AO2 T02120186
KSCR 231500Z AUTO 12008G15KT 100V160 10SM OVC009 21/19 A3008 RMK AO2 T02050187
KSCR 231440Z AUTO 13010KT 10SM OVC009 20/19 A3010 RMK AO2 T02000190
KSCR 231420Z AUTO 12006KT 10SM -RA OVC007 19/19 A3010 RMK AO2 T01920186
KSCR 231400Z AUTO 14009G19KT 110V170 7SM OVC007 19/18 A3011 RMK AO2 T01920182
KSCR 231340Z AUTO 13010G14KT 090V160 10SM OVC005 19/18 A3012 RMK AO2 T01900181
KSCR 231320Z AUTO 12008G16KT 100V160 10SM OVC005 19/18 A3013 RMK AO2 T01860180
KSCR 231300Z AUTO 12007KT 10SM OVC005 18/18 A3013 RMK AO2 T01830178
KSCR 231240Z AUTO 12007KT 10SM OVC005 18/18 A3013 RMK AO2 T01830177
KSCR 231220Z AUTO 13007KT 100V160 10SM OVC005 18/18 A3013 RMK AO2 T01820175
KSCR 231200Z AUTO 11008KT 10SM OVC005 18/18 A3013 RMK AO2 T01800175
KSCR 231140Z AUTO 11008KT 10SM OVC005 18/17 A3014 RMK AO2 T01770172
KSCR 231120Z AUTO 11007KT 10SM BKN007 BKN012 OVC019 18/17 A3015 RMK AO2 T01770170
KSCR 231100Z AUTO 10007KT 10SM SCT009 BKN014 OVC021 18/17 A3015 RMK AO2 T01760165
KSCR 231040Z AUTO 11007KT 10SM SCT014 OVC021 18/16 A3016 RMK AO2 T01760161
KSCR 231020Z AUTO 12007KT 10SM OVC023 18/16 A3017 RMK AO2 T01760160
KSCR 231000Z AUTO 11005KT 10SM BKN025 BKN031 OVC039 18/16 A3017 RMK AO2 T01750160
KSCR 230940Z AUTO 10003KT 10SM BKN039 BKN048 OVC065 17/16 A3017 RMK AO2 T01740158
KSCR 230920Z AUTO 10006KT 10SM SCT024 OVC050 18/16 A3017 RMK AO2 T01750158
KSCR 230900Z AUTO 10005KT 10SM BKN024 OVC050 18/16 A3017 RMK AO2 T01750159
KSCR 230840Z AUTO 10005KT 10SM BKN024 OVC065 18/16 A3018 RMK AO2 T01750158
KSCR 230820Z AUTO 11005KT 10SM SCT026 BKN065 17/16 A3019 RMK AO2 T01720158
KSCR 230800Z AUTO 11004KT 10SM SCT026 17/16 A3019 RMK AO2 T01710157
KSCR 230740Z AUTO 12004KT 10SM CLR 17/16 A3019 RMK AO2 T01700157
KSCR 230720Z AUTO 11004KT 10SM CLR 17/16 A3020 RMK AO2 T01710157
KSCR 230700Z AUTO 10004KT 10SM CLR 17/16 A3021 RMK AO2 T01710156
KSCR 230640Z AUTO 11004KT 10SM CLR 17/16 A3022 RMK AO2 T01710156
KSCR 230620Z AUTO 00000KT 10SM CLR 17/16 A3023 RMK AO2 T01710155
KSCR 230600Z AUTO 12003KT 10SM CLR 17/16 A3023 RMK AO2 T01740156
KSCR 230540Z AUTO 00000KT 10SM CLR 17/16 A3023 RMK AO2 T01710155
KSCR 230520Z AUTO 00000KT 10SM CLR 17/15 A3024 RMK AO2 T01740153
KSCR 230500Z AUTO 14003KT 10SM CLR 18/15 A3024 RMK AO2 T01790153
KSCR 230440Z AUTO 12003KT 10SM CLR 18/15 A3025 RMK AO2 T01760152
KSCR 230420Z AUTO 00000KT 10SM CLR 18/15 A3026 RMK AO2 T01760150
KSCR 230400Z AUTO 00000KT 10SM CLR 18/15 A3026 RMK AO2 T01810150
KSCR 230340Z AUTO 00000KT 10SM CLR 19/15 A3026 RMK AO2 T01850148
KSCR 230320Z AUTO 00000KT 10SM CLR 19/15 A3027 RMK AO2 T01870146
KSCR 230300Z AUTO 00000KT 10SM CLR 20/15 A3027 RMK AO2 T01960146
KSCR 230240Z AUTO 00000KT 10SM SCT060 20/15 A3027 RMK AO2 T01980145
KSCR 230220Z AUTO 11004KT 10SM OVC060 20/15 A3027 RMK AO2 T02010145
KSCR 230200Z AUTO 09003KT 10SM OVC060 20/14 A3028 RMK AO2 T02010144
KSCR 230140Z AUTO 00000KT 10SM OVC060 20/14 A3028 RMK AO2 T02030143
KSCR 230120Z AUTO 00000KT 10SM OVC060 19/14 A3028 RMK AO2 T01910138
KSCR 230100Z AUTO 00000KT 10SM OVC060 18/14 A3028 RMK AO2 T01830136
KSCR 230040Z AUTO 00000KT 10SM OVC060 18/14 A3028 RMK AO2 T01820136
KSCR 230020Z AUTO 00000KT 10SM BKN060 17/13 A3027 RMK AO2 T01660131
KSCR 230000Z AUTO 00000KT 10SM CLR 16/13 A3027 RMK AO2 T01630130
KSCR 222340Z AUTO 00000KT 10SM CLR 17/13 A3027 RMK AO2 T01720132
KSCR 222320Z AUTO 00000KT 10SM CLR 18/14 A3027 RMK AO2 T01790136
KSCR 222300Z AUTO 00000KT 10SM CLR 19/13 A3027 RMK AO2 T01850134
KSCR 222240Z AUTO 00000KT 10SM CLR 21/13 A3027 RMK AO2 T02080131
KSCR 222220Z AUTO 09003KT 10SM SCT050 23/13 A3027 RMK AO2 T02250132
KSCR 222200Z AUTO 00000KT 10SM SCT055 23/13 A3026 RMK AO2 T02330130
KSCR 222140Z AUTO 14005KT 10SM CLR 24/13 A3026 RMK AO2 T02400130
KSCR 222120Z AUTO 12005KT 10SM CLR 25/13 A3026 RMK AO2 T02510131
KSCR 222100Z AUTO 14004KT 10SM SCT050 25/13 A3026 RMK AO2 T02520130
KSCR 222040Z AUTO 14006KT 10SM BKN050 26/13 A3026 RMK AO2 T02550131
KSCR 222020Z AUTO 16005KT 10SM SCT050 26/13 A3026 RMK AO2 T02580130
KSCR 222000Z AUTO 13008KT 10SM SCT050 25/13 A3027 RMK AO2 T02540131
KSCR 221940Z AUTO 09006KT 10SM SCT050 25/13 A3027 RMK AO2 T02530131
KSCR 221920Z AUTO 19006KT 10SM CLR 26/13 A3027 RMK AO2 T02550128
KSCR 221900Z AUTO 12006KT 10SM CLR 25/13 A3028 RMK AO2 T02490134
KSCR 221840Z AUTO 14006KT 10SM SCT048 25/13 A3029 RMK AO2 T02520133
KSCR 221820Z AUTO 13006KT 10SM SCT047 25/14 A3030 RMK AO2 T02540135
KSCR 221800Z AUTO 07004KT 10SM CLR 24/13 A3031 RMK AO2 T02440131
KSCR 221740Z AUTO 09003KT 10SM CLR 24/13 A3031 RMK AO2 T02440133
KSCR 221720Z AUTO 15005KT 10SM CLR 24/13 A3032 RMK AO2 T02410133
KSCR 221700Z AUTO 12005KT 10SM CLR 24/13 A3034 RMK AO2 T02350131
KSCR 221640Z AUTO 13004KT 10SM CLR 24/13 A3035 RMK AO2 T02370134
KSCR 221620Z AUTO 09006KT 10SM CLR 23/13 A3036 RMK AO2 T02300129
KSCR 221600Z AUTO 13004KT 10SM CLR 23/13 A3037 RMK AO2 T02250128
KSCR 221540Z AUTO 12004KT 10SM CLR 22/13 A3037 RMK AO2 T02220134
KSCR 221520Z AUTO 14004KT 10SM CLR 21/14 A3037 RMK AO2 T02130140
KSCR 221500Z AUTO 10004KT 10SM CLR 21/15 A3038 RMK AO2 T02050154
KSCR 221440Z AUTO 14004KT 10SM SCT008 20/16 A3037 RMK AO2 T01990156
KSCR 221420Z AUTO 13003KT 10SM BKN008 19/15 A3038 RMK AO2 T01910151
KSCR 221400Z AUTO 13005KT 10SM CLR 18/15 A3038 RMK AO2 T01790147
KSCR 221340Z AUTO 09004KT 10SM CLR 18/15 A3037 RMK AO2 T01750151
KSCR 221320Z AUTO 00000KT 10SM SCT003 16/14 A3037 RMK AO2 T01580142
KSCR 221300Z AUTO 00000KT 10SM SCT003 13/12 A3037 RMK AO2 T01300119
KSCR 221240Z AUTO 00000KT 10SM CLR 10/10 A3037 RMK AO2 T01040096
KSCR 221220Z AUTO 00000KT 10SM CLR 09/08 A3037 RMK AO2 T00890084
KSCR 221200Z AUTO 00000KT 10SM CLR 08/08 A3036 RMK AO2 T00830080
KSCR 221140Z AUTO 00000KT 10SM CLR 09/08 A3035 RMK AO2 T00860082
KSCR 221120Z AUTO 00000KT 10SM CLR 09/08 A3035 RMK AO2 T00860081
KSCR 221100Z AUTO 00000KT 10SM CLR 09/09 A3035 RMK AO2 T00910086
KSCR 221040Z AUTO 00000KT 10SM CLR 09/09 A3034 RMK AO2 T00920088
KSCR 221020Z AUTO 00000KT 10SM CLR 09/09 A3034 RMK AO2 T00890086
KSCR 221000Z AUTO 00000KT 10SM CLR 10/09 A3034 RMK AO2 T00950089
KSCR 220940Z AUTO 00000KT 10SM CLR 10/09 A3034 RMK AO2 T00960091
KSCR 220920Z AUTO 00000KT 10SM CLR 10/09 A3033 RMK AO2 T00960089
KSCR 220900Z AUTO 00000KT 10SM CLR 10/09 A3033 RMK AO2 T00960091
KSCR 220840Z AUTO 00000KT 10SM CLR 10/09 A3033 RMK AO2 T01000094
KSCR 220820Z AUTO 00000KT 10SM CLR 10/10 A3033 RMK AO2 T01010096
KSCR 220800Z AUTO 00000KT 10SM CLR 11/09 A3033 RMK AO2 T01050091
KSCR 220740Z AUTO 00000KT 10SM CLR 11/10 A3033 RMK AO2 T01050095
KSCR 220720Z AUTO 00000KT 10SM CLR 11/10 A3033 RMK AO2 T01100095
KSCR 220700Z AUTO 00000KT 10SM CLR 11/10 A3033 RMK AO2 T01110097
KSCR 220640Z AUTO 00000KT 10SM CLR 12/10 A3033 RMK AO2 T01150100
KSCR 220620Z AUTO 00000KT 10SM CLR 11/10 A3033 RMK AO2 T01140099
KSCR 220600Z AUTO 00000KT 10SM CLR 11/10 A3033 RMK AO2 T01090096
KSCR 220540Z AUTO 00000KT 10SM CLR 11/10 A3033 RMK AO2 T01110095
KSCR 220520Z AUTO 00000KT 10SM CLR 12/10 A3033 RMK AO2 T01160096